sensor_id;sensor_type;location;lat;lon;timestamp;P1;durP1;ratioP1;P2;durP2;ratioP2
55069;SDS011;40967;52.070;8.596;2023-04-24T00:00:35;0.30;;;0.20;;
55069;SDS011;40967;52.070;8.596;2023-04-24T00:03:01;0.30;;;0.20;;
55069;SDS011;40967;52.070;8.596;2023-04-24T00:05:28;1.15;;;0.40;;
55069;SDS011;40967;52.070;8.596;2023-04-24T00:07:54;0.70;;;0.30;;
55069;SDS011;40967;52.070;8.596;2023-04-24T00:10:20;0.50;;;0.20;;
55069;SDS011;40967;52.070;8.596;2023-04-24T00:12:46;0.40;;;0.20;;
55069;SDS011;40967;52.070;8.596;2023-04-24T00:15:11;0.40;;;0.20;;
55069;SDS011;40967;52.070;8.596;2023-04-24T00:17:40;0.32;;;0.10;;
55069;SDS011;40967;52.070;8.596;2023-04-24T00:20:06;0.32;;;0.13;;
55069;SDS011;40967;52.070;8.596;2023-04-24T00:22:32;0.30;;;0.20;;
55069;SDS011;40967;52.070;8.596;2023-04-24T00:24:57;0.10;;;0.10;;
55069;SDS011;40967;52.070;8.596;2023-04-24T00:27:23;0.00;;;0.00;;
55069;SDS011;40967;52.070;8.596;2023-04-24T00:29:48;0.40;;;0.10;;
55069;SDS011;40967;52.070;8.596;2023-04-24T00:32:14;0.10;;;0.10;;
55069;SDS011;40967;52.070;8.596;2023-04-24T00:34:39;0.30;;;0.10;;
55069;SDS011;40967;52.070;8.596;2023-04-24T00:37:05;0.30;;;0.20;;
55069;SDS011;40967;52.070;8.596;2023-04-24T00:39:31;0.30;;;0.10;;
55069;SDS011;40967;52.070;8.596;2023-04-24T00:41:56;0.10;;;0.10;;
55069;SDS011;40967;52.070;8.596;2023-04-24T00:44:22;0.10;;;0.10;;
55069;SDS011;40967;52.070;8.596;2023-04-24T00:46:48;0.10;;;0.10;;
55069;SDS011;40967;52.070;8.596;2023-04-24T00:49:18;0.30;;;0.20;;
55069;SDS011;40967;52.070;8.596;2023-04-24T00:51:43;0.30;;;0.20;;
55069;SDS011;40967;52.070;8.596;2023-04-24T00:54:10;0.33;;;0.17;;
55069;SDS011;40967;52.070;8.596;2023-04-24T00:56:37;0.20;;;0.20;;
55069;SDS011;40967;52.070;8.596;2023-04-24T00:59:06;0.43;;;0.22;;
55069;SDS011;40967;52.070;8.596;2023-04-24T01:01:31;0.22;;;0.20;;
55069;SDS011;40967;52.070;8.596;2023-04-24T01:03:57;0.40;;;0.22;;
55069;SDS011;40967;52.070;8.596;2023-04-24T01:06:23;0.40;;;0.20;;
55069;SDS011;40967;52.070;8.596;2023-04-24T01:08:52;0.60;;;0.30;;
55069;SDS011;40967;52.070;8.596;2023-04-24T01:11:19;0.30;;;0.30;;
55069;SDS011;40967;52.070;8.596;2023-04-24T01:13:44;0.10;;;0.10;;
55069;SDS011;40967;52.070;8.596;2023-04-24T01:16:10;0.30;;;0.20;;
55069;SDS011;40967;52.070;8.596;2023-04-24T01:18:36;0.20;;;0.20;;
55069;SDS011;40967;52.070;8.596;2023-04-24T01:21:03;0.30;;;0.20;;
55069;SDS011;40967;52.070;8.596;2023-04-24T01:23:29;0.10;;;0.10;;
55069;SDS011;40967;52.070;8.596;2023-04-24T01:25:55;0.20;;;0.20;;
55069;SDS011;40967;52.070;8.596;2023-04-24T01:28:21;0.20;;;0.20;;
55069;SDS011;40967;52.070;8.596;2023-04-24T01:30:46;0.50;;;0.20;;
55069;SDS011;40967;52.070;8.596;2023-04-24T01:33:12;0.70;;;0.10;;
55069;SDS011;40967;52.070;8.596;2023-04-24T01:35:38;0.22;;;0.20;;
55069;SDS011;40967;52.070;8.596;2023-04-24T01:38:03;0.10;;;0.10;;
55069;SDS011;40967;52.070;8.596;2023-04-24T01:40:30;0.20;;;0.20;;
55069;SDS011;40967;52.070;8.596;2023-04-24T01:42:56;0.30;;;0.10;;
55069;SDS011;40967;52.070;8.596;2023-04-24T01:45:23;0.43;;;0.20;;
55069;SDS011;40967;52.070;8.596;2023-04-24T01:47:48;0.20;;;0.10;;
55069;SDS011;40967;52.070;8.596;2023-04-24T01:50:14;0.30;;;0.20;;
55069;SDS011;40967;52.070;8.596;2023-04-24T01:52:40;0.30;;;0.20;;
55069;SDS011;40967;52.070;8.596;2023-04-24T01:55:05;0.20;;;0.20;;
55069;SDS011;40967;52.070;8.596;2023-04-24T01:57:32;0.52;;;0.20;;
55069;SDS011;40967;52.070;8.596;2023-04-24T01:59:58;0.20;;;0.20;;
55069;SDS011;40967;52.070;8.596;2023-04-24T02:02:24;0.10;;;0.10;;
55069;SDS011;40967;52.070;8.596;2023-04-24T02:04:52;0.20;;;0.10;;
55069;SDS011;40967;52.070;8.596;2023-04-24T02:07:18;0.20;;;0.20;;
55069;SDS011;40967;52.070;8.596;2023-04-24T02:09:43;0.98;;;0.50;;
55069;SDS011;40967;52.070;8.596;2023-04-24T02:12:08;1.20;;;0.30;;
55069;SDS011;40967;52.070;8.596;2023-04-24T02:14:34;0.53;;;0.27;;
55069;SDS011;40967;52.070;8.596;2023-04-24T02:16:59;1.00;;;0.40;;
55069;SDS011;40967;52.070;8.596;2023-04-24T02:19:25;0.40;;;0.30;;
55069;SDS011;40967;52.070;8.596;2023-04-24T02:21:51;0.60;;;0.30;;
55069;SDS011;40967;52.070;8.596;2023-04-24T02:24:17;1.67;;;0.53;;
55069;SDS011;40967;52.070;8.596;2023-04-24T02:26:42;1.07;;;0.57;;
55069;SDS011;40967;52.070;8.596;2023-04-24T02:29:08;1.50;;;0.40;;
55069;SDS011;40967;52.070;8.596;2023-04-24T02:31:33;1.00;;;0.70;;
55069;SDS011;40967;52.070;8.596;2023-04-24T02:33:58;0.80;;;0.30;;
55069;SDS011;40967;52.070;8.596;2023-04-24T02:36:24;0.57;;;0.40;;
55069;SDS011;40967;52.070;8.596;2023-04-24T02:38:52;0.65;;;0.30;;
55069;SDS011;40967;52.070;8.596;2023-04-24T02:41:18;0.80;;;0.40;;
55069;SDS011;40967;52.070;8.596;2023-04-24T02:43:44;0.30;;;0.22;;
55069;SDS011;40967;52.070;8.596;2023-04-24T02:46:09;0.30;;;0.30;;
55069;SDS011;40967;52.070;8.596;2023-04-24T02:48:35;0.50;;;0.30;;
55069;SDS011;40967;52.070;8.596;2023-04-24T02:51:00;0.33;;;0.30;;
55069;SDS011;40967;52.070;8.596;2023-04-24T02:53:26;1.02;;;0.50;;
55069;SDS011;40967;52.070;8.596;2023-04-24T02:55:51;0.80;;;0.40;;
55069;SDS011;40967;52.070;8.596;2023-04-24T02:58:17;0.90;;;0.40;;
55069;SDS011;40967;52.070;8.596;2023-04-24T03:00:44;0.90;;;0.50;;
55069;SDS011;40967;52.070;8.596;2023-04-24T03:03:10;0.70;;;0.40;;
55069;SDS011;40967;52.070;8.596;2023-04-24T03:05:35;0.50;;;0.40;;
55069;SDS011;40967;52.070;8.596;2023-04-24T03:08:01;0.52;;;0.40;;
55069;SDS011;40967;52.070;8.596;2023-04-24T03:10:26;0.90;;;0.40;;
55069;SDS011;40967;52.070;8.596;2023-04-24T03:12:52;0.77;;;0.40;;
55069;SDS011;40967;52.070;8.596;2023-04-24T03:15:17;0.70;;;0.30;;
55069;SDS011;40967;52.070;8.596;2023-04-24T03:17:43;0.20;;;0.20;;
55069;SDS011;40967;52.070;8.596;2023-04-24T03:20:08;0.55;;;0.30;;
55069;SDS011;40967;52.070;8.596;2023-04-24T03:22:34;0.50;;;0.38;;
55069;SDS011;40967;52.070;8.596;2023-04-24T03:25:00;0.33;;;0.20;;
55069;SDS011;40967;52.070;8.596;2023-04-24T03:27:26;0.47;;;0.30;;
55069;SDS011;40967;52.070;8.596;2023-04-24T03:29:51;0.40;;;0.20;;
55069;SDS011;40967;52.070;8.596;2023-04-24T03:32:20;0.30;;;0.20;;
55069;SDS011;40967;52.070;8.596;2023-04-24T03:34:48;0.60;;;0.30;;
55069;SDS011;40967;52.070;8.596;2023-04-24T03:37:15;1.08;;;0.40;;
55069;SDS011;40967;52.070;8.596;2023-04-24T03:39:41;0.65;;;0.40;;
55069;SDS011;40967;52.070;8.596;2023-04-24T03:42:07;1.03;;;0.60;;
55069;SDS011;40967;52.070;8.596;2023-04-24T03:44:33;0.30;;;0.30;;
55069;SDS011;40967;52.070;8.596;2023-04-24T03:46:59;0.57;;;0.30;;
55069;SDS011;40967;52.070;8.596;2023-04-24T03:49:24;0.30;;;0.20;;
55069;SDS011;40967;52.070;8.596;2023-04-24T03:51:50;0.47;;;0.30;;
55069;SDS011;40967;52.070;8.596;2023-04-24T03:54:17;0.50;;;0.20;;
55069;SDS011;40967;52.070;8.596;2023-04-24T03:56:42;0.47;;;0.20;;
55069;SDS011;40967;52.070;8.596;2023-04-24T03:59:08;1.10;;;0.30;;
55069;SDS011;40967;52.070;8.596;2023-04-24T04:01:33;0.30;;;0.30;;
55069;SDS011;40967;52.070;8.596;2023-04-24T04:04:02;1.27;;;0.40;;
55069;SDS011;40967;52.070;8.596;2023-04-24T04:06:33;0.73;;;0.40;;
55069;SDS011;40967;52.070;8.596;2023-04-24T04:09:02;0.70;;;0.47;;
55069;SDS011;40967;52.070;8.596;2023-04-24T04:11:28;1.08;;;0.50;;
55069;SDS011;40967;52.070;8.596;2023-04-24T04:13:53;1.50;;;0.70;;
55069;SDS011;40967;52.070;8.596;2023-04-24T04:16:19;1.08;;;0.43;;
55069;SDS011;40967;52.070;8.596;2023-04-24T04:18:45;1.90;;;0.80;;
55069;SDS011;40967;52.070;8.596;2023-04-24T04:21:11;1.30;;;0.70;;
55069;SDS011;40967;52.070;8.596;2023-04-24T04:23:36;1.47;;;0.60;;
55069;SDS011;40967;52.070;8.596;2023-04-24T04:26:02;1.13;;;0.70;;
55069;SDS011;40967;52.070;8.596;2023-04-24T04:28:28;1.60;;;0.70;;
55069;SDS011;40967;52.070;8.596;2023-04-24T04:30:55;1.23;;;0.70;;
55069;SDS011;40967;52.070;8.596;2023-04-24T04:33:22;1.00;;;0.60;;
55069;SDS011;40967;52.070;8.596;2023-04-24T04:35:51;1.10;;;0.60;;
55069;SDS011;40967;52.070;8.596;2023-04-24T04:38:21;3.13;;;1.00;;
55069;SDS011;40967;52.070;8.596;2023-04-24T04:40:47;1.40;;;0.80;;
55069;SDS011;40967;52.070;8.596;2023-04-24T04:43:13;2.00;;;1.17;;
55069;SDS011;40967;52.070;8.596;2023-04-24T04:45:39;1.70;;;0.90;;
55069;SDS011;40967;52.070;8.596;2023-04-24T04:48:06;1.83;;;0.82;;
55069;SDS011;40967;52.070;8.596;2023-04-24T04:50:37;2.10;;;1.00;;
55069;SDS011;40967;52.070;8.596;2023-04-24T04:53:03;2.40;;;1.23;;
55069;SDS011;40967;52.070;8.596;2023-04-24T04:55:28;1.87;;;1.10;;
55069;SDS011;40967;52.070;8.596;2023-04-24T04:57:53;3.83;;;1.90;;
55069;SDS011;40967;52.070;8.596;2023-04-24T05:00:20;4.60;;;2.40;;
55069;SDS011;40967;52.070;8.596;2023-04-24T05:02:46;4.05;;;2.40;;
55069;SDS011;40967;52.070;8.596;2023-04-24T05:05:11;6.00;;;3.43;;
55069;SDS011;40967;52.070;8.596;2023-04-24T05:07:37;6.27;;;3.63;;
55069;SDS011;40967;52.070;8.596;2023-04-24T05:10:02;7.37;;;5.03;;
55069;SDS011;40967;52.070;8.596;2023-04-24T05:12:28;7.82;;;4.80;;
55069;SDS011;40967;52.070;8.596;2023-04-24T05:14:53;6.83;;;4.70;;
55069;SDS011;40967;52.070;8.596;2023-04-24T05:17:19;7.03;;;4.13;;
55069;SDS011;40967;52.070;8.596;2023-04-24T05:19:44;7.35;;;4.60;;
55069;SDS011;40967;52.070;8.596;2023-04-24T05:22:11;6.93;;;3.97;;
55069;SDS011;40967;52.070;8.596;2023-04-24T05:24:36;6.67;;;4.40;;
55069;SDS011;40967;52.070;8.596;2023-04-24T05:27:02;7.25;;;4.53;;
55069;SDS011;40967;52.070;8.596;2023-04-24T05:29:29;6.10;;;3.53;;
55069;SDS011;40967;52.070;8.596;2023-04-24T05:31:56;5.53;;;3.35;;
55069;SDS011;40967;52.070;8.596;2023-04-24T05:34:22;6.88;;;4.57;;
55069;SDS011;40967;52.070;8.596;2023-04-24T05:36:47;6.27;;;3.40;;
55069;SDS011;40967;52.070;8.596;2023-04-24T05:39:13;8.32;;;4.88;;
55069;SDS011;40967;52.070;8.596;2023-04-24T05:41:39;7.32;;;4.30;;
55069;SDS011;40967;52.070;8.596;2023-04-24T05:44:04;7.57;;;4.10;;
55069;SDS011;40967;52.070;8.596;2023-04-24T05:46:30;8.50;;;4.95;;
55069;SDS011;40967;52.070;8.596;2023-04-24T05:48:55;10.27;;;5.10;;
55069;SDS011;40967;52.070;8.596;2023-04-24T05:51:20;8.10;;;4.97;;
55069;SDS011;40967;52.070;8.596;2023-04-24T05:53:46;7.03;;;4.80;;
55069;SDS011;40967;52.070;8.596;2023-04-24T05:56:11;11.03;;;5.93;;
55069;SDS011;40967;52.070;8.596;2023-04-24T05:58:37;6.68;;;3.80;;
55069;SDS011;40967;52.070;8.596;2023-04-24T06:01:02;7.40;;;4.83;;
55069;SDS011;40967;52.070;8.596;2023-04-24T06:03:28;10.13;;;5.80;;
55069;SDS011;40967;52.070;8.596;2023-04-24T06:05:54;8.80;;;5.00;;
55069;SDS011;40967;52.070;8.596;2023-04-24T06:08:19;7.25;;;4.05;;
55069;SDS011;40967;52.070;8.596;2023-04-24T06:10:45;7.13;;;3.97;;
55069;SDS011;40967;52.070;8.596;2023-04-24T06:13:10;5.40;;;3.33;;
55069;SDS011;40967;52.070;8.596;2023-04-24T06:15:36;7.30;;;4.30;;
55069;SDS011;40967;52.070;8.596;2023-04-24T06:18:03;8.50;;;5.30;;
55069;SDS011;40967;52.070;8.596;2023-04-24T06:20:29;8.13;;;5.13;;
55069;SDS011;40967;52.070;8.596;2023-04-24T06:22:54;9.05;;;5.53;;
55069;SDS011;40967;52.070;8.596;2023-04-24T06:25:20;9.38;;;6.20;;
55069;SDS011;40967;52.070;8.596;2023-04-24T06:27:45;8.53;;;5.50;;
55069;SDS011;40967;52.070;8.596;2023-04-24T06:30:11;7.53;;;5.07;;
55069;SDS011;40967;52.070;8.596;2023-04-24T06:32:37;7.57;;;4.43;;
55069;SDS011;40967;52.070;8.596;2023-04-24T06:35:02;6.73;;;4.33;;
55069;SDS011;40967;52.070;8.596;2023-04-24T06:37:28;9.43;;;6.55;;
55069;SDS011;40967;52.070;8.596;2023-04-24T06:39:54;12.97;;;7.87;;
55069;SDS011;40967;52.070;8.596;2023-04-24T06:42:19;8.93;;;5.80;;
55069;SDS011;40967;52.070;8.596;2023-04-24T06:44:46;7.68;;;5.10;;
55069;SDS011;40967;52.070;8.596;2023-04-24T06:47:12;9.73;;;6.00;;
55069;SDS011;40967;52.070;8.596;2023-04-24T06:49:38;8.20;;;5.30;;
55069;SDS011;40967;52.070;8.596;2023-04-24T06:52:05;10.13;;;7.32;;
55069;SDS011;40967;52.070;8.596;2023-04-24T06:54:30;9.53;;;5.63;;
55069;SDS011;40967;52.070;8.596;2023-04-24T06:56:56;10.77;;;6.85;;
55069;SDS011;40967;52.070;8.596;2023-04-24T06:59:22;10.52;;;6.68;;
55069;SDS011;40967;52.070;8.596;2023-04-24T07:01:48;14.20;;;8.05;;
55069;SDS011;40967;52.070;8.596;2023-04-24T07:04:14;12.47;;;8.13;;
55069;SDS011;40967;52.070;8.596;2023-04-24T07:06:39;8.30;;;5.60;;
55069;SDS011;40967;52.070;8.596;2023-04-24T07:09:05;8.48;;;6.07;;
55069;SDS011;40967;52.070;8.596;2023-04-24T07:11:30;9.00;;;6.20;;
55069;SDS011;40967;52.070;8.596;2023-04-24T07:13:56;9.15;;;6.07;;
55069;SDS011;40967;52.070;8.596;2023-04-24T07:16:21;9.65;;;6.47;;
55069;SDS011;40967;52.070;8.596;2023-04-24T07:18:47;10.63;;;7.23;;
55069;SDS011;40967;52.070;8.596;2023-04-24T07:21:12;9.53;;;6.33;;
55069;SDS011;40967;52.070;8.596;2023-04-24T07:23:38;10.10;;;5.53;;
55069;SDS011;40967;52.070;8.596;2023-04-24T07:26:03;8.30;;;5.57;;
55069;SDS011;40967;52.070;8.596;2023-04-24T07:28:29;10.10;;;6.80;;
55069;SDS011;40967;52.070;8.596;2023-04-24T07:30:57;9.83;;;6.40;;
55069;SDS011;40967;52.070;8.596;2023-04-24T07:33:24;6.53;;;4.32;;
55069;SDS011;40967;52.070;8.596;2023-04-24T07:35:50;7.70;;;4.63;;
55069;SDS011;40967;52.070;8.596;2023-04-24T07:38:16;7.47;;;4.60;;
55069;SDS011;40967;52.070;8.596;2023-04-24T07:40:41;7.60;;;4.28;;
55069;SDS011;40967;52.070;8.596;2023-04-24T07:43:07;5.83;;;3.63;;
55069;SDS011;40967;52.070;8.596;2023-04-24T07:45:32;6.03;;;3.80;;
55069;SDS011;40967;52.070;8.596;2023-04-24T07:48:01;7.88;;;5.53;;
55069;SDS011;40967;52.070;8.596;2023-04-24T07:50:26;8.43;;;4.60;;
55069;SDS011;40967;52.070;8.596;2023-04-24T07:52:51;8.55;;;4.80;;
55069;SDS011;40967;52.070;8.596;2023-04-24T07:55:17;7.50;;;4.80;;
55069;SDS011;40967;52.070;8.596;2023-04-24T07:57:42;6.47;;;4.13;;
55069;SDS011;40967;52.070;8.596;2023-04-24T08:00:08;5.30;;;3.40;;
55069;SDS011;40967;52.070;8.596;2023-04-24T08:02:34;7.65;;;4.65;;
55069;SDS011;40967;52.070;8.596;2023-04-24T08:04:59;7.90;;;5.30;;
55069;SDS011;40967;52.070;8.596;2023-04-24T08:07:28;7.13;;;4.33;;
55069;SDS011;40967;52.070;8.596;2023-04-24T08:09:53;6.55;;;4.18;;
55069;SDS011;40967;52.070;8.596;2023-04-24T08:12:19;5.43;;;2.80;;
55069;SDS011;40967;52.070;8.596;2023-04-24T08:14:44;6.23;;;3.70;;
55069;SDS011;40967;52.070;8.596;2023-04-24T08:17:10;4.30;;;2.60;;
55069;SDS011;40967;52.070;8.596;2023-04-24T08:19:35;3.80;;;2.05;;
55069;SDS011;40967;52.070;8.596;2023-04-24T08:22:00;4.90;;;3.40;;
55069;SDS011;40967;52.070;8.596;2023-04-24T08:24:26;4.87;;;3.27;;
55069;SDS011;40967;52.070;8.596;2023-04-24T08:26:52;5.80;;;2.73;;
55069;SDS011;40967;52.070;8.596;2023-04-24T08:29:19;4.60;;;2.67;;
55069;SDS011;40967;52.070;8.596;2023-04-24T08:31:44;4.70;;;2.90;;
55069;SDS011;40967;52.070;8.596;2023-04-24T08:34:10;3.30;;;2.10;;
55069;SDS011;40967;52.070;8.596;2023-04-24T08:36:35;4.77;;;3.03;;
55069;SDS011;40967;52.070;8.596;2023-04-24T08:39:02;4.95;;;3.00;;
55069;SDS011;40967;52.070;8.596;2023-04-24T08:41:27;4.40;;;2.30;;
55069;SDS011;40967;52.070;8.596;2023-04-24T08:43:53;3.67;;;2.10;;
55069;SDS011;40967;52.070;8.596;2023-04-24T08:46:20;3.75;;;2.30;;
55069;SDS011;40967;52.070;8.596;2023-04-24T08:48:45;4.63;;;2.80;;
55069;SDS011;40967;52.070;8.596;2023-04-24T08:51:11;3.65;;;2.05;;
55069;SDS011;40967;52.070;8.596;2023-04-24T08:53:37;5.35;;;2.83;;
55069;SDS011;40967;52.070;8.596;2023-04-24T08:56:03;3.90;;;2.22;;
55069;SDS011;40967;52.070;8.596;2023-04-24T08:58:29;2.75;;;1.65;;
55069;SDS011;40967;52.070;8.596;2023-04-24T09:00:58;4.00;;;1.60;;
55069;SDS011;40967;52.070;8.596;2023-04-24T09:03:24;3.92;;;2.10;;
55069;SDS011;40967;52.070;8.596;2023-04-24T09:05:53;3.50;;;1.92;;
55069;SDS011;40967;52.070;8.596;2023-04-24T09:08:20;3.83;;;1.83;;
55069;SDS011;40967;52.070;8.596;2023-04-24T09:10:49;3.97;;;1.90;;
55069;SDS011;40967;52.070;8.596;2023-04-24T09:13:15;2.92;;;1.58;;
55069;SDS011;40967;52.070;8.596;2023-04-24T09:15:41;3.10;;;1.45;;
55069;SDS011;40967;52.070;8.596;2023-04-24T09:18:07;2.97;;;1.70;;
55069;SDS011;40967;52.070;8.596;2023-04-24T09:20:33;3.07;;;1.60;;
55069;SDS011;40967;52.070;8.596;2023-04-24T09:23:00;2.33;;;1.40;;
55069;SDS011;40967;52.070;8.596;2023-04-24T09:25:33;2.43;;;1.50;;
55069;SDS011;40967;52.070;8.596;2023-04-24T09:28:04;1.80;;;1.07;;
55069;SDS011;40967;52.070;8.596;2023-04-24T09:30:31;3.50;;;1.40;;
55069;SDS011;40967;52.070;8.596;2023-04-24T09:33:13;1.77;;;1.17;;
55069;SDS011;40967;52.070;8.596;2023-04-24T09:35:40;3.03;;;1.38;;
55069;SDS011;40967;52.070;8.596;2023-04-24T09:38:07;2.17;;;1.35;;
55069;SDS011;40967;52.070;8.596;2023-04-24T09:40:33;2.07;;;1.17;;
55069;SDS011;40967;52.070;8.596;2023-04-24T09:43:00;2.90;;;1.00;;
55069;SDS011;40967;52.070;8.596;2023-04-24T09:45:31;2.30;;;1.20;;
55069;SDS011;40967;52.070;8.596;2023-04-24T09:48:01;1.88;;;1.08;;
55069;SDS011;40967;52.070;8.596;2023-04-24T09:50:26;1.97;;;1.00;;
55069;SDS011;40967;52.070;8.596;2023-04-24T09:52:59;1.70;;;0.97;;
55069;SDS011;40967;52.070;8.596;2023-04-24T09:55:27;1.80;;;0.93;;
55069;SDS011;40967;52.070;8.596;2023-04-24T09:57:59;2.13;;;1.00;;
55069;SDS011;40967;52.070;8.596;2023-04-24T10:02:58;1.43;;;0.90;;
55069;SDS011;40967;52.070;8.596;2023-04-24T10:05:27;2.13;;;1.10;;
55069;SDS011;40967;52.070;8.596;2023-04-24T10:07:57;1.42;;;0.90;;
55069;SDS011;40967;52.070;8.596;2023-04-24T10:10:28;1.92;;;0.98;;
55069;SDS011;40967;52.070;8.596;2023-04-24T10:12:53;2.13;;;0.80;;
55069;SDS011;40967;52.070;8.596;2023-04-24T10:15:20;1.40;;;0.80;;
55069;SDS011;40967;52.070;8.596;2023-04-24T10:17:49;1.77;;;0.98;;
55069;SDS011;40967;52.070;8.596;2023-04-24T10:20:22;1.40;;;0.77;;
55069;SDS011;40967;52.070;8.596;2023-04-24T10:22:50;2.37;;;0.97;;
55069;SDS011;40967;52.070;8.596;2023-04-24T10:25:18;3.40;;;1.27;;
55069;SDS011;40967;52.070;8.596;2023-04-24T10:27:48;5.15;;;2.88;;
55069;SDS011;40967;52.070;8.596;2023-04-24T10:30:14;4.15;;;2.10;;
55069;SDS011;40967;52.070;8.596;2023-04-24T10:32:40;2.25;;;1.25;;
55069;SDS011;40967;52.070;8.596;2023-04-24T10:35:06;1.23;;;0.70;;
55069;SDS011;40967;52.070;8.596;2023-04-24T10:37:43;0.98;;;0.63;;
55069;SDS011;40967;52.070;8.596;2023-04-24T10:40:11;0.75;;;0.50;;
55069;SDS011;40967;52.070;8.596;2023-04-24T10:42:41;1.70;;;0.60;;
55069;SDS011;40967;52.070;8.596;2023-04-24T10:45:15;0.70;;;0.45;;
55069;SDS011;40967;52.070;8.596;2023-04-24T10:47:41;3.88;;;1.50;;
55069;SDS011;40967;52.070;8.596;2023-04-24T10:50:09;2.53;;;1.20;;
55069;SDS011;40967;52.070;8.596;2023-04-24T10:52:45;2.58;;;1.67;;
55069;SDS011;40967;52.070;8.596;2023-04-24T10:55:16;2.70;;;1.67;;
55069;SDS011;40967;52.070;8.596;2023-04-24T10:58:05;3.05;;;1.65;;
55069;SDS011;40967;52.070;8.596;2023-04-24T11:00:30;2.83;;;1.45;;
55069;SDS011;40967;52.070;8.596;2023-04-24T11:02:56;4.00;;;2.22;;
55069;SDS011;40967;52.070;8.596;2023-04-24T11:05:22;4.47;;;2.40;;
55069;SDS011;40967;52.070;8.596;2023-04-24T11:08:45;3.80;;;2.25;;
55069;SDS011;40967;52.070;8.596;2023-04-24T11:11:12;3.47;;;2.30;;
55069;SDS011;40967;52.070;8.596;2023-04-24T11:14:24;3.65;;;2.15;;
55069;SDS011;40967;52.070;8.596;2023-04-24T11:16:31;4.75;;;2.30;;
55069;SDS011;40967;52.070;8.596;2023-04-24T11:21:43;3.90;;;2.30;;
55069;SDS011;40967;52.070;8.596;2023-04-24T11:26:51;3.90;;;2.20;;
55069;SDS011;40967;52.070;8.596;2023-04-24T11:29:19;3.03;;;1.95;;
55069;SDS011;40967;52.070;8.596;2023-04-24T11:31:45;3.70;;;2.00;;
55069;SDS011;40967;52.070;8.596;2023-04-24T11:34:16;3.83;;;2.10;;
55069;SDS011;40967;52.070;8.596;2023-04-24T11:36:43;3.25;;;2.00;;
55069;SDS011;40967;52.070;8.596;2023-04-24T11:39:10;1.77;;;1.38;;
55069;SDS011;40967;52.070;8.596;2023-04-24T11:41:36;2.15;;;1.50;;
55069;SDS011;40967;52.070;8.596;2023-04-24T11:44:02;2.33;;;1.50;;
55069;SDS011;40967;52.070;8.596;2023-04-24T11:46:29;1.77;;;1.10;;
55069;SDS011;40967;52.070;8.596;2023-04-24T11:48:56;1.67;;;0.90;;
55069;SDS011;40967;52.070;8.596;2023-04-24T11:51:23;1.23;;;0.82;;
55069;SDS011;40967;52.070;8.596;2023-04-24T11:53:50;1.52;;;0.70;;
55069;SDS011;40967;52.070;8.596;2023-04-24T11:56:21;0.70;;;0.50;;
55069;SDS011;40967;52.070;8.596;2023-04-24T11:58:53;1.17;;;0.50;;
55069;SDS011;40967;52.070;8.596;2023-04-24T12:01:21;0.50;;;0.32;;
55069;SDS011;40967;52.070;8.596;2023-04-24T12:03:47;0.30;;;0.30;;
55069;SDS011;40967;52.070;8.596;2023-04-24T12:06:13;0.60;;;0.40;;
55069;SDS011;40967;52.070;8.596;2023-04-24T12:08:38;0.88;;;0.30;;
55069;SDS011;40967;52.070;8.596;2023-04-24T12:11:05;0.50;;;0.30;;
55069;SDS011;40967;52.070;8.596;2023-04-24T12:13:32;0.30;;;0.30;;
55069;SDS011;40967;52.070;8.596;2023-04-24T12:15:58;0.40;;;0.30;;
55069;SDS011;40967;52.070;8.596;2023-04-24T12:18:24;2.10;;;0.60;;
55069;SDS011;40967;52.070;8.596;2023-04-24T12:20:50;1.17;;;0.50;;
55069;SDS011;40967;52.070;8.596;2023-04-24T12:23:32;1.57;;;0.67;;
55069;SDS011;40967;52.070;8.596;2023-04-24T12:26:04;1.88;;;0.80;;
55069;SDS011;40967;52.070;8.596;2023-04-24T12:28:36;1.27;;;0.70;;
55069;SDS011;40967;52.070;8.596;2023-04-24T12:31:02;2.13;;;1.05;;
55069;SDS011;40967;52.070;8.596;2023-04-24T12:33:28;2.63;;;1.30;;
55069;SDS011;40967;52.070;8.596;2023-04-24T12:35:58;6.63;;;1.20;;
55069;SDS011;40967;52.070;8.596;2023-04-24T12:38:25;3.05;;;1.40;;
55069;SDS011;40967;52.070;8.596;2023-04-24T12:41:07;3.08;;;1.42;;
55069;SDS011;40967;52.070;8.596;2023-04-24T12:43:34;2.87;;;1.70;;
55069;SDS011;40967;52.070;8.596;2023-04-24T12:46:00;4.10;;;1.90;;
55069;SDS011;40967;52.070;8.596;2023-04-24T12:48:28;4.53;;;2.58;;
55069;SDS011;40967;52.070;8.596;2023-04-24T12:50:54;4.87;;;2.47;;
55069;SDS011;40967;52.070;8.596;2023-04-24T12:53:21;6.47;;;2.30;;
55069;SDS011;40967;52.070;8.596;2023-04-24T12:55:47;4.57;;;2.25;;
55069;SDS011;40967;52.070;8.596;2023-04-24T12:58:18;4.65;;;2.72;;
55069;SDS011;40967;52.070;8.596;2023-04-24T13:00:45;4.63;;;2.25;;
55069;SDS011;40967;52.070;8.596;2023-04-24T13:03:11;6.13;;;3.03;;
55069;SDS011;40967;52.070;8.596;2023-04-24T13:05:36;5.32;;;2.80;;
55069;SDS011;40967;52.070;8.596;2023-04-24T13:08:02;4.00;;;2.20;;
55069;SDS011;40967;52.070;8.596;2023-04-24T13:10:27;4.97;;;2.80;;
55069;SDS011;40967;52.070;8.596;2023-04-24T13:12:53;6.93;;;3.00;;
55069;SDS011;40967;52.070;8.596;2023-04-24T13:15:19;3.83;;;2.50;;
55069;SDS011;40967;52.070;8.596;2023-04-24T13:17:45;3.80;;;2.25;;
55069;SDS011;40967;52.070;8.596;2023-04-24T13:20:10;5.87;;;3.00;;
55069;SDS011;40967;52.070;8.596;2023-04-24T13:22:35;5.80;;;2.90;;
55069;SDS011;40967;52.070;8.596;2023-04-24T13:25:01;4.30;;;2.00;;
55069;SDS011;40967;52.070;8.596;2023-04-24T13:27:27;4.65;;;2.83;;
55069;SDS011;40967;52.070;8.596;2023-04-24T13:29:52;5.37;;;2.50;;
55069;SDS011;40967;52.070;8.596;2023-04-24T13:32:18;6.33;;;2.60;;
55069;SDS011;40967;52.070;8.596;2023-04-24T13:34:43;5.20;;;2.15;;
55069;SDS011;40967;52.070;8.596;2023-04-24T13:37:09;6.07;;;2.90;;
55069;SDS011;40967;52.070;8.596;2023-04-24T13:39:34;4.17;;;2.10;;
55069;SDS011;40967;52.070;8.596;2023-04-24T13:42:00;4.22;;;2.00;;
55069;SDS011;40967;52.070;8.596;2023-04-24T13:44:26;7.13;;;2.80;;
55069;SDS011;40967;52.070;8.596;2023-04-24T13:46:53;4.88;;;1.90;;
55069;SDS011;40967;52.070;8.596;2023-04-24T13:49:21;4.60;;;2.00;;
55069;SDS011;40967;52.070;8.596;2023-04-24T13:51:49;6.68;;;2.80;;
55069;SDS011;40967;52.070;8.596;2023-04-24T13:54:15;8.35;;;3.40;;
55069;SDS011;40967;52.070;8.596;2023-04-24T13:56:40;10.77;;;3.90;;
55069;SDS011;40967;52.070;8.596;2023-04-24T13:59:05;8.70;;;3.70;;
55069;SDS011;40967;52.070;8.596;2023-04-24T14:01:31;6.90;;;3.30;;
55069;SDS011;40967;52.070;8.596;2023-04-24T14:03:57;7.23;;;3.20;;
55069;SDS011;40967;52.070;8.596;2023-04-24T14:06:22;7.27;;;2.60;;
55069;SDS011;40967;52.070;8.596;2023-04-24T14:08:48;6.68;;;3.20;;
55069;SDS011;40967;52.070;8.596;2023-04-24T14:11:15;8.43;;;3.90;;
55069;SDS011;40967;52.070;8.596;2023-04-24T14:13:41;13.43;;;4.75;;
55069;SDS011;40967;52.070;8.596;2023-04-24T14:16:07;9.73;;;4.27;;
55069;SDS011;40967;52.070;8.596;2023-04-24T14:18:33;7.60;;;3.58;;
55069;SDS011;40967;52.070;8.596;2023-04-24T14:20:58;8.93;;;4.40;;
55069;SDS011;40967;52.070;8.596;2023-04-24T14:23:26;7.53;;;3.92;;
55069;SDS011;40967;52.070;8.596;2023-04-24T14:25:51;7.07;;;3.27;;
55069;SDS011;40967;52.070;8.596;2023-04-24T14:28:20;9.43;;;3.80;;
55069;SDS011;40967;52.070;8.596;2023-04-24T14:30:46;11.02;;;4.57;;
55069;SDS011;40967;52.070;8.596;2023-04-24T14:33:12;9.27;;;3.60;;
55069;SDS011;40967;52.070;8.596;2023-04-24T14:35:38;11.57;;;4.32;;
55069;SDS011;40967;52.070;8.596;2023-04-24T14:38:05;10.63;;;4.32;;
55069;SDS011;40967;52.070;8.596;2023-04-24T14:40:33;9.67;;;3.57;;
55069;SDS011;40967;52.070;8.596;2023-04-24T14:42:59;9.25;;;3.65;;
55069;SDS011;40967;52.070;8.596;2023-04-24T14:45:25;6.70;;;3.60;;
55069;SDS011;40967;52.070;8.596;2023-04-24T14:47:51;8.70;;;3.50;;
55069;SDS011;40967;52.070;8.596;2023-04-24T14:50:17;6.75;;;2.88;;
55069;SDS011;40967;52.070;8.596;2023-04-24T14:52:43;10.35;;;4.05;;